KPMV

Plattsmouth Municipal Airport

Plattsmouth, Nebraska, USA
METAR KPMV 211435Z AUTO 27007KT 5SM BR OVC004 14/14 A3006 RMK AO2 T01400135
Observed Flight Rules
May-21 @ 14:35 UTC (23 minutes ago) Instrument Flight Rules
Wind Visibility Clouds Conditions
270° at 7 knots 5 miles
  • Overcast at 400' AGL
  • Mist
Temperatures Readings
Current 14°C / 57°F
Dewpoint 14°C / 57°F
Humidity 100%
Altimeter 30.06" Hg
Pressure 1018 hPa
Elevation 367
METAR KPMV 211435Z AUTO 27007KT 5SM BR OVC004 14/14 A3006 RMK AO2 T01400135
Observed Flight Rules
May-21 @ 14:35 UTC
(23 minutes ago)
LIFR
Wind Visibility
270° at 7 knots 5 miles
Clouds
  • Overcast at 400' AGL
Conditions
  • Mist
Temperature Dewpoint
14°C / 57°F 14°C / 57°F
Humidity Altimeter Pressure
100% 30.06" Hg 1018 hPa